sensor_id;sensor_type;location;lat;lon;timestamp;P1;durP1;ratioP1;P2;durP2;ratioP2
51764;SDS011;37835;53.256;6.456;2023-04-30T00:00:13;10.02;;;3.67;;
51764;SDS011;37835;53.256;6.456;2023-04-30T00:02:38;9.95;;;3.38;;
51764;SDS011;37835;53.256;6.456;2023-04-30T00:05:04;7.50;;;3.90;;
51764;SDS011;37835;53.256;6.456;2023-04-30T00:07:30;9.90;;;4.05;;
51764;SDS011;37835;53.256;6.456;2023-04-30T00:09:56;11.13;;;4.03;;
51764;SDS011;37835;53.256;6.456;2023-04-30T00:12:21;8.38;;;3.40;;
51764;SDS011;37835;53.256;6.456;2023-04-30T00:14:47;11.68;;;3.83;;
51764;SDS011;37835;53.256;6.456;2023-04-30T00:17:13;12.45;;;3.58;;
51764;SDS011;37835;53.256;6.456;2023-04-30T00:19:39;7.85;;;3.47;;
51764;SDS011;37835;53.256;6.456;2023-04-30T00:22:04;7.57;;;4.13;;
51764;SDS011;37835;53.256;6.456;2023-04-30T00:24:30;9.10;;;3.92;;
51764;SDS011;37835;53.256;6.456;2023-04-30T00:26:55;12.90;;;4.22;;
51764;SDS011;37835;53.256;6.456;2023-04-30T00:29:21;10.77;;;4.10;;
51764;SDS011;37835;53.256;6.456;2023-04-30T00:31:46;11.25;;;3.92;;
51764;SDS011;37835;53.256;6.456;2023-04-30T00:34:12;10.77;;;3.55;;
51764;SDS011;37835;53.256;6.456;2023-04-30T00:36:38;7.80;;;4.20;;
51764;SDS011;37835;53.256;6.456;2023-04-30T00:39:04;7.20;;;3.50;;
51764;SDS011;37835;53.256;6.456;2023-04-30T00:41:30;2.78;;;2.28;;
51764;SDS011;37835;53.256;6.456;2023-04-30T00:43:57;5.43;;;2.53;;
51764;SDS011;37835;53.256;6.456;2023-04-30T00:46:22;4.03;;;2.50;;
51764;SDS011;37835;53.256;6.456;2023-04-30T00:48:48;5.45;;;2.45;;
51764;SDS011;37835;53.256;6.456;2023-04-30T00:51:14;4.88;;;2.60;;
51764;SDS011;37835;53.256;6.456;2023-04-30T00:53:40;5.90;;;2.58;;
51764;SDS011;37835;53.256;6.456;2023-04-30T00:56:07;3.60;;;2.60;;
51764;SDS011;37835;53.256;6.456;2023-04-30T00:58:34;5.45;;;3.05;;
51764;SDS011;37835;53.256;6.456;2023-04-30T01:01:00;5.38;;;2.50;;
51764;SDS011;37835;53.256;6.456;2023-04-30T01:03:27;9.88;;;3.40;;
51764;SDS011;37835;53.256;6.456;2023-04-30T01:05:53;5.75;;;2.88;;
51764;SDS011;37835;53.256;6.456;2023-04-30T01:08:18;4.53;;;2.90;;
51764;SDS011;37835;53.256;6.456;2023-04-30T01:10:47;7.57;;;3.35;;
51764;SDS011;37835;53.256;6.456;2023-04-30T01:15:45;4.20;;;3.20;;
51764;SDS011;37835;53.256;6.456;2023-04-30T01:18:22;7.00;;;3.17;;
51764;SDS011;37835;53.256;6.456;2023-04-30T01:20:53;8.18;;;3.00;;
51764;SDS011;37835;53.256;6.456;2023-04-30T01:26:15;4.60;;;2.63;;
51764;SDS011;37835;53.256;6.456;2023-04-30T01:28:53;5.50;;;2.47;;
51764;SDS011;37835;53.256;6.456;2023-04-30T01:31:22;7.72;;;2.72;;
51764;SDS011;37835;53.256;6.456;2023-04-30T01:33:48;4.70;;;2.40;;
51764;SDS011;37835;53.256;6.456;2023-04-30T01:46:30;8.75;;;3.53;;
51764;SDS011;37835;53.256;6.456;2023-04-30T01:49:02;6.40;;;3.13;;
51764;SDS011;37835;53.256;6.456;2023-04-30T01:51:43;10.38;;;3.60;;
51764;SDS011;37835;53.256;6.456;2023-04-30T01:54:35;9.48;;;3.75;;
51764;SDS011;37835;53.256;6.456;2023-04-30T01:57:07;7.53;;;3.72;;
51764;SDS011;37835;53.256;6.456;2023-04-30T01:59:40;7.43;;;3.90;;
51764;SDS011;37835;53.256;6.456;2023-04-30T02:02:07;7.53;;;3.40;;
51764;SDS011;37835;53.256;6.456;2023-04-30T02:04:33;6.78;;;3.55;;
51764;SDS011;37835;53.256;6.456;2023-04-30T02:06:58;7.88;;;3.67;;
51764;SDS011;37835;53.256;6.456;2023-04-30T02:09:25;11.43;;;4.15;;
51764;SDS011;37835;53.256;6.456;2023-04-30T02:11:50;8.45;;;3.95;;
51764;SDS011;37835;53.256;6.456;2023-04-30T02:14:16;7.95;;;3.85;;
51764;SDS011;37835;53.256;6.456;2023-04-30T02:16:41;8.07;;;3.70;;
51764;SDS011;37835;53.256;6.456;2023-04-30T02:19:07;8.38;;;3.75;;
51764;SDS011;37835;53.256;6.456;2023-04-30T02:21:33;8.77;;;4.13;;
51764;SDS011;37835;53.256;6.456;2023-04-30T02:23:58;8.82;;;3.90;;
51764;SDS011;37835;53.256;6.456;2023-04-30T02:26:24;7.20;;;3.90;;
51764;SDS011;37835;53.256;6.456;2023-04-30T02:28:50;14.18;;;4.30;;
51764;SDS011;37835;53.256;6.456;2023-04-30T02:31:16;5.43;;;3.75;;
51764;SDS011;37835;53.256;6.456;2023-04-30T02:33:41;5.93;;;3.20;;
51764;SDS011;37835;53.256;6.456;2023-04-30T02:36:07;8.38;;;3.15;;
51764;SDS011;37835;53.256;6.456;2023-04-30T02:38:32;4.90;;;2.70;;
51764;SDS011;37835;53.256;6.456;2023-04-30T02:40:58;6.20;;;3.00;;
51764;SDS011;37835;53.256;6.456;2023-04-30T02:43:24;9.05;;;3.08;;
51764;SDS011;37835;53.256;6.456;2023-04-30T02:45:49;7.88;;;2.88;;
51764;SDS011;37835;53.256;6.456;2023-04-30T02:48:15;5.30;;;2.92;;
51764;SDS011;37835;53.256;6.456;2023-04-30T02:50:41;8.13;;;3.30;;
51764;SDS011;37835;53.256;6.456;2023-04-30T02:53:06;5.43;;;2.70;;
51764;SDS011;37835;53.256;6.456;2023-04-30T02:55:32;9.52;;;3.97;;
51764;SDS011;37835;53.256;6.456;2023-04-30T02:57:57;7.38;;;3.35;;
51764;SDS011;37835;53.256;6.456;2023-04-30T03:00:23;5.47;;;3.22;;
51764;SDS011;37835;53.256;6.456;2023-04-30T03:02:49;7.43;;;3.30;;
51764;SDS011;37835;53.256;6.456;2023-04-30T03:05:14;6.05;;;3.10;;
51764;SDS011;37835;53.256;6.456;2023-04-30T03:07:40;10.25;;;4.47;;
51764;SDS011;37835;53.256;6.456;2023-04-30T03:10:06;4.72;;;3.65;;
51764;SDS011;37835;53.256;6.456;2023-04-30T03:12:32;7.20;;;4.00;;
51764;SDS011;37835;53.256;6.456;2023-04-30T03:14:58;9.57;;;4.05;;
51764;SDS011;37835;53.256;6.456;2023-04-30T03:17:23;9.73;;;3.67;;
51764;SDS011;37835;53.256;6.456;2023-04-30T03:19:49;11.65;;;3.50;;
51764;SDS011;37835;53.256;6.456;2023-04-30T03:22:15;11.55;;;4.50;;
51764;SDS011;37835;53.256;6.456;2023-04-30T03:24:43;10.95;;;3.83;;
51764;SDS011;37835;53.256;6.456;2023-04-30T03:27:09;11.77;;;4.30;;
51764;SDS011;37835;53.256;6.456;2023-04-30T03:29:35;7.38;;;3.58;;
51764;SDS011;37835;53.256;6.456;2023-04-30T03:32:00;6.55;;;3.72;;
51764;SDS011;37835;53.256;6.456;2023-04-30T03:34:26;10.63;;;4.05;;
51764;SDS011;37835;53.256;6.456;2023-04-30T03:36:52;11.95;;;4.50;;
51764;SDS011;37835;53.256;6.456;2023-04-30T03:39:17;8.45;;;4.10;;
51764;SDS011;37835;53.256;6.456;2023-04-30T03:41:43;10.80;;;4.20;;
51764;SDS011;37835;53.256;6.456;2023-04-30T03:44:08;8.30;;;4.22;;
51764;SDS011;37835;53.256;6.456;2023-04-30T03:46:39;8.98;;;4.00;;
51764;SDS011;37835;53.256;6.456;2023-04-30T03:49:06;9.85;;;4.13;;
51764;SDS011;37835;53.256;6.456;2023-04-30T03:51:32;12.07;;;4.30;;
51764;SDS011;37835;53.256;6.456;2023-04-30T03:53:57;9.30;;;3.97;;
51764;SDS011;37835;53.256;6.456;2023-04-30T03:56:23;11.38;;;4.30;;
51764;SDS011;37835;53.256;6.456;2023-04-30T03:58:50;10.70;;;4.20;;
51764;SDS011;37835;53.256;6.456;2023-04-30T04:01:15;10.40;;;4.15;;
51764;SDS011;37835;53.256;6.456;2023-04-30T04:03:41;6.10;;;3.90;;
51764;SDS011;37835;53.256;6.456;2023-04-30T04:06:06;10.13;;;4.25;;
51764;SDS011;37835;53.256;6.456;2023-04-30T04:08:32;9.38;;;4.00;;
51764;SDS011;37835;53.256;6.456;2023-04-30T04:10:58;8.20;;;3.33;;
51764;SDS011;37835;53.256;6.456;2023-04-30T04:13:23;14.68;;;3.90;;
51764;SDS011;37835;53.256;6.456;2023-04-30T04:15:49;10.50;;;3.80;;
51764;SDS011;37835;53.256;6.456;2023-04-30T04:18:15;9.25;;;3.42;;
51764;SDS011;37835;53.256;6.456;2023-04-30T04:20:40;8.43;;;3.40;;
51764;SDS011;37835;53.256;6.456;2023-04-30T04:23:06;10.57;;;4.25;;
51764;SDS011;37835;53.256;6.456;2023-04-30T04:25:31;9.40;;;3.97;;
51764;SDS011;37835;53.256;6.456;2023-04-30T04:27:57;9.70;;;3.58;;
51764;SDS011;37835;53.256;6.456;2023-04-30T04:30:23;8.90;;;3.72;;
51764;SDS011;37835;53.256;6.456;2023-04-30T04:32:48;8.48;;;3.70;;
51764;SDS011;37835;53.256;6.456;2023-04-30T04:35:17;9.40;;;3.85;;
51764;SDS011;37835;53.256;6.456;2023-04-30T04:37:43;8.95;;;3.65;;
51764;SDS011;37835;53.256;6.456;2023-04-30T04:40:09;10.18;;;4.00;;
51764;SDS011;37835;53.256;6.456;2023-04-30T04:42:36;6.68;;;3.47;;
51764;SDS011;37835;53.256;6.456;2023-04-30T04:45:03;8.65;;;3.30;;
51764;SDS011;37835;53.256;6.456;2023-04-30T04:47:32;10.07;;;4.03;;
51764;SDS011;37835;53.256;6.456;2023-04-30T04:49:58;6.38;;;3.70;;
51764;SDS011;37835;53.256;6.456;2023-04-30T04:52:24;10.07;;;4.03;;
51764;SDS011;37835;53.256;6.456;2023-04-30T04:54:49;12.32;;;4.32;;
51764;SDS011;37835;53.256;6.456;2023-04-30T04:57:15;16.00;;;4.25;;
51764;SDS011;37835;53.256;6.456;2023-04-30T04:59:41;11.15;;;4.10;;
51764;SDS011;37835;53.256;6.456;2023-04-30T05:02:07;12.02;;;3.97;;
51764;SDS011;37835;53.256;6.456;2023-04-30T05:04:32;12.20;;;3.70;;
51764;SDS011;37835;53.256;6.456;2023-04-30T05:06:58;11.40;;;4.30;;
51764;SDS011;37835;53.256;6.456;2023-04-30T05:09:23;6.57;;;3.85;;
51764;SDS011;37835;53.256;6.456;2023-04-30T05:11:49;10.25;;;3.95;;
51764;SDS011;37835;53.256;6.456;2023-04-30T05:14:15;14.30;;;4.60;;
51764;SDS011;37835;53.256;6.456;2023-04-30T05:16:40;12.70;;;4.07;;
51764;SDS011;37835;53.256;6.456;2023-04-30T05:19:06;16.95;;;4.13;;
51764;SDS011;37835;53.256;6.456;2023-04-30T05:21:33;12.23;;;4.22;;
51764;SDS011;37835;53.256;6.456;2023-04-30T05:23:59;12.80;;;3.95;;
51764;SDS011;37835;53.256;6.456;2023-04-30T05:26:25;10.43;;;3.70;;
51764;SDS011;37835;53.256;6.456;2023-04-30T05:28:51;10.93;;;4.38;;
51764;SDS011;37835;53.256;6.456;2023-04-30T05:31:17;12.55;;;4.32;;
51764;SDS011;37835;53.256;6.456;2023-04-30T05:33:42;9.45;;;4.13;;
51764;SDS011;37835;53.256;6.456;2023-04-30T05:36:11;12.73;;;3.88;;
51764;SDS011;37835;53.256;6.456;2023-04-30T05:38:37;13.73;;;4.00;;
51764;SDS011;37835;53.256;6.456;2023-04-30T05:41:03;10.32;;;4.28;;
51764;SDS011;37835;53.256;6.456;2023-04-30T05:43:28;11.50;;;3.67;;
51764;SDS011;37835;53.256;6.456;2023-04-30T05:45:54;11.07;;;3.70;;
51764;SDS011;37835;53.256;6.456;2023-04-30T05:48:20;7.85;;;3.65;;
51764;SDS011;37835;53.256;6.456;2023-04-30T05:50:45;14.38;;;3.75;;
51764;SDS011;37835;53.256;6.456;2023-04-30T05:53:12;11.02;;;3.78;;
51764;SDS011;37835;53.256;6.456;2023-04-30T05:55:38;13.90;;;4.63;;
51764;SDS011;37835;53.256;6.456;2023-04-30T05:58:03;11.45;;;4.15;;
51764;SDS011;37835;53.256;6.456;2023-04-30T06:00:30;10.73;;;3.90;;
51764;SDS011;37835;53.256;6.456;2023-04-30T06:02:55;14.48;;;4.55;;
51764;SDS011;37835;53.256;6.456;2023-04-30T06:05:21;7.93;;;3.38;;
51764;SDS011;37835;53.256;6.456;2023-04-30T06:07:47;13.55;;;3.88;;
51764;SDS011;37835;53.256;6.456;2023-04-30T06:10:12;12.95;;;3.80;;
51764;SDS011;37835;53.256;6.456;2023-04-30T06:12:38;9.18;;;3.58;;
51764;SDS011;37835;53.256;6.456;2023-04-30T06:15:04;14.07;;;3.70;;
51764;SDS011;37835;53.256;6.456;2023-04-30T06:17:30;16.02;;;4.03;;
51764;SDS011;37835;53.256;6.456;2023-04-30T06:19:56;14.93;;;3.72;;
51764;SDS011;37835;53.256;6.456;2023-04-30T06:22:24;12.20;;;3.30;;
51764;SDS011;37835;53.256;6.456;2023-04-30T06:24:50;12.88;;;3.70;;
51764;SDS011;37835;53.256;6.456;2023-04-30T06:27:16;16.13;;;3.42;;
51764;SDS011;37835;53.256;6.456;2023-04-30T06:29:41;11.70;;;3.22;;
51764;SDS011;37835;53.256;6.456;2023-04-30T06:32:07;14.15;;;3.53;;
51764;SDS011;37835;53.256;6.456;2023-04-30T06:34:32;14.27;;;3.67;;
51764;SDS011;37835;53.256;6.456;2023-04-30T06:36:58;18.10;;;3.60;;
51764;SDS011;37835;53.256;6.456;2023-04-30T06:39:24;12.65;;;3.30;;
51764;SDS011;37835;53.256;6.456;2023-04-30T06:41:49;12.43;;;3.45;;
51764;SDS011;37835;53.256;6.456;2023-04-30T06:44:16;14.52;;;3.65;;
51764;SDS011;37835;53.256;6.456;2023-04-30T06:46:42;10.82;;;3.47;;
51764;SDS011;37835;53.256;6.456;2023-04-30T06:49:08;12.82;;;3.75;;
51764;SDS011;37835;53.256;6.456;2023-04-30T06:51:34;13.27;;;4.65;;
51764;SDS011;37835;53.256;6.456;2023-04-30T06:53:59;13.25;;;3.60;;
51764;SDS011;37835;53.256;6.456;2023-04-30T06:56:25;11.95;;;3.80;;
51764;SDS011;37835;53.256;6.456;2023-04-30T06:58:50;12.05;;;4.00;;
51764;SDS011;37835;53.256;6.456;2023-04-30T07:01:16;16.50;;;3.50;;
51764;SDS011;37835;53.256;6.456;2023-04-30T07:03:42;14.43;;;3.47;;
51764;SDS011;37835;53.256;6.456;2023-04-30T07:06:08;9.75;;;3.08;;
51764;SDS011;37835;53.256;6.456;2023-04-30T07:08:34;15.02;;;3.63;;
51764;SDS011;37835;53.256;6.456;2023-04-30T07:10:59;14.52;;;4.15;;
51764;SDS011;37835;53.256;6.456;2023-04-30T07:13:25;13.70;;;2.75;;
51764;SDS011;37835;53.256;6.456;2023-04-30T07:15:51;12.23;;;2.65;;
51764;SDS011;37835;53.256;6.456;2023-04-30T07:18:16;16.17;;;2.83;;
51764;SDS011;37835;53.256;6.456;2023-04-30T07:20:42;12.80;;;3.35;;
51764;SDS011;37835;53.256;6.456;2023-04-30T07:23:08;10.10;;;2.80;;
51764;SDS011;37835;53.256;6.456;2023-04-30T07:25:33;12.00;;;3.05;;
51764;SDS011;37835;53.256;6.456;2023-04-30T07:27:59;15.00;;;2.80;;
51764;SDS011;37835;53.256;6.456;2023-04-30T07:30:25;17.05;;;2.72;;
51764;SDS011;37835;53.256;6.456;2023-04-30T07:32:50;9.45;;;2.63;;
51764;SDS011;37835;53.256;6.456;2023-04-30T07:35:16;7.38;;;2.45;;
51764;SDS011;37835;53.256;6.456;2023-04-30T07:37:41;10.02;;;2.40;;
51764;SDS011;37835;53.256;6.456;2023-04-30T07:40:08;11.20;;;3.13;;
51764;SDS011;37835;53.256;6.456;2023-04-30T07:42:37;13.18;;;2.80;;
51764;SDS011;37835;53.256;6.456;2023-04-30T07:45:05;11.20;;;2.65;;
51764;SDS011;37835;53.256;6.456;2023-04-30T07:47:31;4.25;;;2.10;;
51764;SDS011;37835;53.256;6.456;2023-04-30T07:49:57;13.07;;;2.80;;
51764;SDS011;37835;53.256;6.456;2023-04-30T07:52:22;10.02;;;2.50;;
51764;SDS011;37835;53.256;6.456;2023-04-30T07:54:48;7.70;;;2.28;;
51764;SDS011;37835;53.256;6.456;2023-04-30T07:57:14;11.70;;;2.88;;
51764;SDS011;37835;53.256;6.456;2023-04-30T07:59:39;16.50;;;2.80;;
51764;SDS011;37835;53.256;6.456;2023-04-30T08:02:06;13.02;;;2.60;;
51764;SDS011;37835;53.256;6.456;2023-04-30T08:04:32;7.43;;;2.67;;
51764;SDS011;37835;53.256;6.456;2023-04-30T08:06:58;13.13;;;2.70;;
51764;SDS011;37835;53.256;6.456;2023-04-30T08:09:25;12.15;;;2.38;;
51764;SDS011;37835;53.256;6.456;2023-04-30T08:11:51;9.60;;;2.67;;
51764;SDS011;37835;53.256;6.456;2023-04-30T08:14:17;14.45;;;2.75;;
51764;SDS011;37835;53.256;6.456;2023-04-30T08:16:44;9.77;;;2.30;;
51764;SDS011;37835;53.256;6.456;2023-04-30T08:19:09;10.93;;;2.80;;
51764;SDS011;37835;53.256;6.456;2023-04-30T08:21:35;10.73;;;2.60;;
51764;SDS011;37835;53.256;6.456;2023-04-30T08:24:01;12.18;;;2.35;;
51764;SDS011;37835;53.256;6.456;2023-04-30T08:26:26;15.27;;;2.55;;
51764;SDS011;37835;53.256;6.456;2023-04-30T08:28:52;11.05;;;3.17;;
51764;SDS011;37835;53.256;6.456;2023-04-30T08:31:18;10.30;;;2.42;;
51764;SDS011;37835;53.256;6.456;2023-04-30T08:33:43;7.93;;;2.22;;
51764;SDS011;37835;53.256;6.456;2023-04-30T08:36:09;13.52;;;2.58;;
51764;SDS011;37835;53.256;6.456;2023-04-30T08:38:35;12.18;;;2.30;;
51764;SDS011;37835;53.256;6.456;2023-04-30T08:41:07;8.43;;;2.47;;
51764;SDS011;37835;53.256;6.456;2023-04-30T08:43:35;10.75;;;3.50;;
51764;SDS011;37835;53.256;6.456;2023-04-30T08:46:01;9.77;;;2.65;;
51764;SDS011;37835;53.256;6.456;2023-04-30T08:48:28;7.65;;;1.90;;
51764;SDS011;37835;53.256;6.456;2023-04-30T08:50:54;8.25;;;2.03;;
51764;SDS011;37835;53.256;6.456;2023-04-30T08:53:19;9.70;;;2.47;;
51764;SDS011;37835;53.256;6.456;2023-04-30T08:55:46;12.77;;;2.50;;
51764;SDS011;37835;53.256;6.456;2023-04-30T08:58:12;13.02;;;2.45;;
51764;SDS011;37835;53.256;6.456;2023-04-30T09:00:38;8.18;;;2.00;;
51764;SDS011;37835;53.256;6.456;2023-04-30T09:03:04;13.77;;;2.28;;
51764;SDS011;37835;53.256;6.456;2023-04-30T09:05:31;10.60;;;2.10;;
51764;SDS011;37835;53.256;6.456;2023-04-30T09:07:57;9.95;;;2.33;;
51764;SDS011;37835;53.256;6.456;2023-04-30T09:10:22;8.80;;;2.33;;
51764;SDS011;37835;53.256;6.456;2023-04-30T09:13:01;11.18;;;2.55;;
51764;SDS011;37835;53.256;6.456;2023-04-30T09:15:27;10.32;;;2.55;;
51764;SDS011;37835;53.256;6.456;2023-04-30T09:18:13;7.20;;;2.10;;
51764;SDS011;37835;53.256;6.456;2023-04-30T09:20:57;12.48;;;2.30;;
51764;SDS011;37835;53.256;6.456;2023-04-30T09:23:27;9.93;;;2.30;;
51764;SDS011;37835;53.256;6.456;2023-04-30T09:25:54;7.93;;;2.17;;
51764;SDS011;37835;53.256;6.456;2023-04-30T09:28:21;10.90;;;2.42;;
51764;SDS011;37835;53.256;6.456;2023-04-30T09:30:52;11.27;;;2.47;;
51764;SDS011;37835;53.256;6.456;2023-04-30T09:33:21;10.65;;;2.15;;
51764;SDS011;37835;53.256;6.456;2023-04-30T09:35:47;8.60;;;2.08;;
51764;SDS011;37835;53.256;6.456;2023-04-30T09:40:52;11.23;;;2.35;;
51764;SDS011;37835;53.256;6.456;2023-04-30T09:43:18;11.90;;;2.70;;
51764;SDS011;37835;53.256;6.456;2023-04-30T09:45:44;9.18;;;2.70;;
51764;SDS011;37835;53.256;6.456;2023-04-30T09:48:14;7.90;;;2.80;;
51764;SDS011;37835;53.256;6.456;2023-04-30T09:50:40;8.20;;;2.30;;
51764;SDS011;37835;53.256;6.456;2023-04-30T09:53:06;10.55;;;2.30;;
51764;SDS011;37835;53.256;6.456;2023-04-30T09:55:34;8.30;;;2.25;;
51764;SDS011;37835;53.256;6.456;2023-04-30T09:58:02;7.90;;;2.00;;
51764;SDS011;37835;53.256;6.456;2023-04-30T10:00:32;13.15;;;2.67;;
51764;SDS011;37835;53.256;6.456;2023-04-30T10:02:58;12.88;;;2.85;;
51764;SDS011;37835;53.256;6.456;2023-04-30T10:05:30;8.38;;;2.47;;
51764;SDS011;37835;53.256;6.456;2023-04-30T10:07:57;8.85;;;2.55;;
51764;SDS011;37835;53.256;6.456;2023-04-30T10:10:23;6.57;;;2.65;;
51764;SDS011;37835;53.256;6.456;2023-04-30T10:12:50;7.60;;;2.50;;
51764;SDS011;37835;53.256;6.456;2023-04-30T10:15:24;8.40;;;2.55;;
51764;SDS011;37835;53.256;6.456;2023-04-30T10:17:56;8.23;;;2.88;;
51764;SDS011;37835;53.256;6.456;2023-04-30T10:20:29;7.57;;;2.42;;
51764;SDS011;37835;53.256;6.456;2023-04-30T10:22:58;9.32;;;2.72;;
51764;SDS011;37835;53.256;6.456;2023-04-30T10:25:24;5.55;;;2.13;;
51764;SDS011;37835;53.256;6.456;2023-04-30T10:27:52;9.88;;;2.42;;
51764;SDS011;37835;53.256;6.456;2023-04-30T10:30:18;8.82;;;2.67;;
51764;SDS011;37835;53.256;6.456;2023-04-30T10:35:21;8.88;;;2.80;;
51764;SDS011;37835;53.256;6.456;2023-04-30T10:37:56;4.28;;;2.30;;
51764;SDS011;37835;53.256;6.456;2023-04-30T10:40:28;6.57;;;1.98;;
51764;SDS011;37835;53.256;6.456;2023-04-30T10:42:59;8.68;;;2.38;;
51764;SDS011;37835;53.256;6.456;2023-04-30T10:45:34;8.07;;;2.75;;
51764;SDS011;37835;53.256;6.456;2023-04-30T10:48:07;9.23;;;2.35;;
51764;SDS011;37835;53.256;6.456;2023-04-30T10:50:38;6.05;;;2.42;;
51764;SDS011;37835;53.256;6.456;2023-04-30T10:53:11;6.00;;;2.30;;
51764;SDS011;37835;53.256;6.456;2023-04-30T10:55:44;8.00;;;3.10;;
51764;SDS011;37835;53.256;6.456;2023-04-30T10:58:32;9.90;;;2.55;;
51764;SDS011;37835;53.256;6.456;2023-04-30T11:01:05;6.63;;;2.40;;
51764;SDS011;37835;53.256;6.456;2023-04-30T11:03:35;6.68;;;2.05;;
51764;SDS011;37835;53.256;6.456;2023-04-30T11:06:11;8.23;;;2.70;;
51764;SDS011;37835;53.256;6.456;2023-04-30T11:08:39;8.35;;;2.70;;
51764;SDS011;37835;53.256;6.456;2023-04-30T11:11:08;8.43;;;2.38;;
51764;SDS011;37835;53.256;6.456;2023-04-30T11:13:38;9.18;;;2.40;;
51764;SDS011;37835;53.256;6.456;2023-04-30T11:16:05;8.40;;;2.33;;
51764;SDS011;37835;53.256;6.456;2023-04-30T11:18:31;7.25;;;2.10;;
51764;SDS011;37835;53.256;6.456;2023-04-30T11:20:57;9.27;;;2.55;;
51764;SDS011;37835;53.256;6.456;2023-04-30T11:23:23;8.60;;;2.20;;
51764;SDS011;37835;53.256;6.456;2023-04-30T11:25:52;7.68;;;2.53;;
51764;SDS011;37835;53.256;6.456;2023-04-30T11:28:23;10.20;;;2.42;;
51764;SDS011;37835;53.256;6.456;2023-04-30T11:30:56;7.07;;;1.80;;
51764;SDS011;37835;53.256;6.456;2023-04-30T11:33:27;4.82;;;1.95;;
51764;SDS011;37835;53.256;6.456;2023-04-30T11:35:54;6.38;;;2.20;;
51764;SDS011;37835;53.256;6.456;2023-04-30T11:38:28;6.68;;;2.20;;
51764;SDS011;37835;53.256;6.456;2023-04-30T11:40:59;3.47;;;1.95;;
51764;SDS011;37835;53.256;6.456;2023-04-30T11:43:26;6.22;;;2.20;;
51764;SDS011;37835;53.256;6.456;2023-04-30T11:46:09;5.28;;;1.83;;
51764;SDS011;37835;53.256;6.456;2023-04-30T11:48:36;6.38;;;1.95;;
51764;SDS011;37835;53.256;6.456;2023-04-30T11:51:04;6.70;;;2.08;;
51764;SDS011;37835;53.256;6.456;2023-04-30T11:53:44;6.82;;;2.60;;
51764;SDS011;37835;53.256;6.456;2023-04-30T11:56:10;10.90;;;2.50;;
51764;SDS011;37835;53.256;6.456;2023-04-30T11:58:36;4.32;;;1.85;;
51764;SDS011;37835;53.256;6.456;2023-04-30T12:01:03;7.68;;;2.60;;
51764;SDS011;37835;53.256;6.456;2023-04-30T12:03:30;5.75;;;2.20;;
51764;SDS011;37835;53.256;6.456;2023-04-30T12:05:56;8.65;;;2.90;;
51764;SDS011;37835;53.256;6.456;2023-04-30T12:08:22;6.13;;;3.33;;
51764;SDS011;37835;53.256;6.456;2023-04-30T12:10:48;6.28;;;2.33;;
51764;SDS011;37835;53.256;6.456;2023-04-30T12:13:13;8.07;;;2.80;;
51764;SDS011;37835;53.256;6.456;2023-04-30T12:15:40;5.97;;;2.75;;
51764;SDS011;37835;53.256;6.456;2023-04-30T12:18:12;6.55;;;2.58;;
51764;SDS011;37835;53.256;6.456;2023-04-30T12:20:39;4.88;;;2.70;;
51764;SDS011;37835;53.256;6.456;2023-04-30T12:23:06;6.05;;;2.65;;
51764;SDS011;37835;53.256;6.456;2023-04-30T12:25:39;5.97;;;2.40;;
51764;SDS011;37835;53.256;6.456;2023-04-30T12:28:06;4.53;;;2.20;;
51764;SDS011;37835;53.256;6.456;2023-04-30T12:30:32;5.63;;;1.95;;
51764;SDS011;37835;53.256;6.456;2023-04-30T12:32:58;7.97;;;2.38;;
51764;SDS011;37835;53.256;6.456;2023-04-30T12:35:26;3.47;;;1.85;;
51764;SDS011;37835;53.256;6.456;2023-04-30T12:38:00;2.53;;;1.38;;
51764;SDS011;37835;53.256;6.456;2023-04-30T12:40:32;6.05;;;1.88;;
51764;SDS011;37835;53.256;6.456;2023-04-30T12:43:01;3.25;;;1.80;;
51764;SDS011;37835;53.256;6.456;2023-04-30T12:48:30;4.53;;;1.60;;
51764;SDS011;37835;53.256;6.456;2023-04-30T12:51:10;6.07;;;1.48;;
51764;SDS011;37835;53.256;6.456;2023-04-30T12:53:45;2.38;;;1.42;;
51764;SDS011;37835;53.256;6.456;2023-04-30T12:56:12;4.53;;;1.20;;
51764;SDS011;37835;53.256;6.456;2023-04-30T12:58:40;4.90;;;1.65;;
51764;SDS011;37835;53.256;6.456;2023-04-30T13:01:11;2.05;;;1.27;;
51764;SDS011;37835;53.256;6.456;2023-04-30T13:03:37;4.43;;;1.13;;
51764;SDS011;37835;53.256;6.456;2023-04-30T13:06:03;3.90;;;1.25;;
51764;SDS011;37835;53.256;6.456;2023-04-30T13:08:30;1.30;;;1.20;;
51764;SDS011;37835;53.256;6.456;2023-04-30T13:10:56;3.25;;;1.35;;
51764;SDS011;37835;53.256;6.456;2023-04-30T13:13:21;2.25;;;1.40;;
51764;SDS011;37835;53.256;6.456;2023-04-30T13:15:47;4.43;;;1.90;;
51764;SDS011;37835;53.256;6.456;2023-04-30T13:18:13;4.45;;;1.55;;
51764;SDS011;37835;53.256;6.456;2023-04-30T13:20:40;2.33;;;1.42;;
51764;SDS011;37835;53.256;6.456;2023-04-30T13:23:07;2.15;;;1.50;;
51764;SDS011;37835;53.256;6.456;2023-04-30T13:25:34;3.55;;;1.67;;
51764;SDS011;37835;53.256;6.456;2023-04-30T13:28:00;2.65;;;1.63;;
51764;SDS011;37835;53.256;6.456;2023-04-30T13:30:26;2.42;;;1.52;;
51764;SDS011;37835;53.256;6.456;2023-04-30T13:32:52;3.08;;;1.42;;
51764;SDS011;37835;53.256;6.456;2023-04-30T13:35:18;4.25;;;1.60;;
51764;SDS011;37835;53.256;6.456;2023-04-30T13:37:44;2.97;;;1.50;;
51764;SDS011;37835;53.256;6.456;2023-04-30T13:40:13;2.20;;;1.60;;
51764;SDS011;37835;53.256;6.456;2023-04-30T13:42:39;2.70;;;1.60;;
51764;SDS011;37835;53.256;6.456;2023-04-30T13:45:07;6.03;;;2.10;;
51764;SDS011;37835;53.256;6.456;2023-04-30T13:47:33;3.22;;;1.83;;
51764;SDS011;37835;53.256;6.456;2023-04-30T13:49:59;3.95;;;2.10;;
51764;SDS011;37835;53.256;6.456;2023-04-30T13:52:26;3.40;;;2.10;;
51764;SDS011;37835;53.256;6.456;2023-04-30T13:54:51;4.50;;;1.92;;
51764;SDS011;37835;53.256;6.456;2023-04-30T13:57:17;3.90;;;2.55;;
51764;SDS011;37835;53.256;6.456;2023-04-30T13:59:43;3.20;;;1.83;;
51764;SDS011;37835;53.256;6.456;2023-04-30T14:02:08;3.50;;;1.90;;
51764;SDS011;37835;53.256;6.456;2023-04-30T14:04:34;3.30;;;1.80;;
51764;SDS011;37835;53.256;6.456;2023-04-30T14:07:01;5.07;;;1.80;;
51764;SDS011;37835;53.256;6.456;2023-04-30T14:09:27;9.52;;;1.90;;
51764;SDS011;37835;53.256;6.456;2023-04-30T14:11:53;3.65;;;2.08;;
51764;SDS011;37835;53.256;6.456;2023-04-30T14:14:22;4.55;;;1.70;;
51764;SDS011;37835;53.256;6.456;2023-04-30T14:16:47;4.25;;;1.70;;
51764;SDS011;37835;53.256;6.456;2023-04-30T14:19:13;2.35;;;1.50;;
51764;SDS011;37835;53.256;6.456;2023-04-30T14:21:38;4.10;;;1.83;;
51764;SDS011;37835;53.256;6.456;2023-04-30T14:24:04;5.40;;;2.00;;
51764;SDS011;37835;53.256;6.456;2023-04-30T14:26:30;4.38;;;1.75;;
51764;SDS011;37835;53.256;6.456;2023-04-30T14:28:56;5.03;;;1.90;;
51764;SDS011;37835;53.256;6.456;2023-04-30T14:31:22;2.20;;;1.67;;
51764;SDS011;37835;53.256;6.456;2023-04-30T14:33:47;3.22;;;1.80;;
51764;SDS011;37835;53.256;6.456;2023-04-30T14:36:13;1.95;;;1.58;;
51764;SDS011;37835;53.256;6.456;2023-04-30T14:38:38;2.35;;;1.40;;
51764;SDS011;37835;53.256;6.456;2023-04-30T14:41:04;4.80;;;1.48;;
51764;SDS011;37835;53.256;6.456;2023-04-30T14:43:29;4.25;;;1.20;;
51764;SDS011;37835;53.256;6.456;2023-04-30T14:45:55;5.13;;;1.50;;
51764;SDS011;37835;53.256;6.456;2023-04-30T14:48:20;3.40;;;1.65;;
51764;SDS011;37835;53.256;6.456;2023-04-30T14:50:46;4.05;;;1.60;;
51764;SDS011;37835;53.256;6.456;2023-04-30T14:53:11;6.93;;;1.30;;
51764;SDS011;37835;53.256;6.456;2023-04-30T14:55:37;4.55;;;1.23;;
51764;SDS011;37835;53.256;6.456;2023-04-30T14:58:03;2.13;;;1.10;;
51764;SDS011;37835;53.256;6.456;2023-04-30T15:00:30;2.90;;;1.30;;
51764;SDS011;37835;53.256;6.456;2023-04-30T15:02:56;3.67;;;1.23;;
51764;SDS011;37835;53.256;6.456;2023-04-30T15:05:21;3.67;;;1.17;;